DFOO/BOY METAR and TAF weather

Enter ICAO airport designator
Station Type Date Time Source
DFOO METAR 2019/08/22 01:00 UTC NOAA

DFOO 220100Z 21008KT CAVOK 25/23 Q1014


Station Type Date Time Source
DFOO Decoded METAR 2019/08/22 01:00 UTC NOAA

Station name not available
Aug 21, 2019 - 09:00 PM EDT / 2019.08.22 0100 UTC
Wind: from the SSW (210 degrees) at 9 MPH (8 KT):0
Visibility: greater than 7 mile(s):0
Temperature: 77 F (25 C)
Dew Point: 73 F (23 C)
Relative Humidity: 88%
Pressure (altimeter): 29.94 in. Hg (1014 hPa)
ob: DFOO 220100Z 21008KT CAVOK 25/23 Q1014
cycle: 1

Station Type Date Time Source
DFOO TAF 2019/08/21 18:21 UTC NOAA

TAF DFOO 211700Z 2118/2218 24008KT 9999 SCT016
TEMPO 2118/2204 4000 TSRA SCT016 SCT030CB
TEMPO 2206/2210 BKN010

Example: see airport list